Terminal Aerodrome Forecast
Issued by NWS Milwaukee/Sullivan, WI

Home | Current Version | Previous Version | Text Only | Print | Product List | Glossary On
Versions: 1 2 3 4 5 6 7 8 9 10 11 12 13 14 15 16 17 18 19 20 21 22 23 24 25
000
FTUS43 KMKX 111123
TAFMKE
TAF
KMKE 111123Z 1112/1218 17007KT 1SM -SN OVC015
     FM111500 17007KT 2SM -SN OVC015
     FM120000 20004KT 3SM -SN OVC008
     FM120300 24006KT P6SM VCSH OVC015
     FM120600 27008KT P6SM OVC015
     FM121100 28010G20KT P6SM BKN020
     FM121200 29010KT P6SM SCT025=

USA.gov is the U.S. government's official web portal to all federal, state and local government web resources and services.